KPPF/PPF METAR and TAF weather

Enter ICAO airport designator
Station Type Date Time Source
KPPF METAR 2020/01/29 12:52 UTC NOAA

KPPF 291252Z AUTO 03005KT 6SM BR OVC027 M01/M02 A3011 RMK AO2 SNB17E43 SLP204 P0000 T10111017


Station Type Date Time Source
KPPF Decoded METAR 2020/01/29 12:52 UTC NOAA

PARSONS TRI-CITY AIRPORT, KS, United States (KPPF) 37-20N 95-30W 274M
Jan 29, 2020 - 07:52 AM EST / 2020.01.29 1252 UTC
Wind: from the NNE (030 degrees) at 6 MPH (5 KT):0
Visibility: 6 mile(s):0
Sky conditions: overcast
Weather: mist
Precipitation last hour: A trace
Temperature: 30.0 F (-1.1 C)
Windchill: 23 F (-5 C):1
Dew Point: 28.9 F (-1.7 C)
Relative Humidity: 95%
Pressure (altimeter): 30.11 in. Hg (1019 hPa)
ob: KPPF 291252Z AUTO 03005KT 6SM BR OVC027 M01/M02 A3011 RMK AO2 SNB17E43 SLP204 P0000 T10111017
cycle: 13

Station Type Date Time Source
KPPF TAF UTC NOAA

Error!

Example: see airport list